Time;durP1;ratioP1;P1;durP2;ratioP2;P2;SDS_P1;SDS_P2;PMS_P1;PMS_P2;Temp;Humidity;BMP_temperature;BMP_pressure;BME280_temperature;BME280_humidity;BME280_pressure;Samples;Min_cycle;Max_cycle;Signal;HPM_P1;HPM_P2
2024/01/04 00:00:58;;;;;;;8.90;6.80;;;;;;;11.90;49.24;100201.46;107163;1256;25362;-52
2024/01/04 00:03:26;;;;;;;9.40;6.70;;;;;;;11.89;49.19;100207.71;106874;1256;25477;-52
2024/01/04 00:05:53;;;;;;;7.90;6.20;;;;;;;11.90;49.16;100205.63;107119;1251;25367;-52
2024/01/04 00:08:20;;;;;;;9.30;7.00;;;;;;;11.88;49.13;100212.13;106331;1257;1002891;-52
2024/01/04 00:10:47;;;;;;;9.40;6.40;;;;;;;11.87;49.13;100214.25;107113;1254;25352;-52
2024/01/04 00:13:14;;;;;;;8.40;6.30;;;;;;;11.85;49.16;100214.83;107054;1251;25475;-51
2024/01/04 00:15:41;;;;;;;8.70;6.70;;;;;;;11.80;49.17;100213.27;107069;1256;25337;-54
2024/01/04 00:18:09;;;;;;;9.10;6.30;;;;;;;11.74;49.26;100207.41;107091;1257;25363;-54
2024/01/04 00:20:36;;;;;;;7.70;6.10;;;;;;;11.67;49.42;100210.07;106820;1272;25386;-51
2024/01/04 00:23:04;;;;;;;9.60;7.10;;;;;;;11.57;49.68;100211.63;107132;1253;25414;-53
2024/01/04 00:25:31;;;;;;;9.80;6.70;;;;;;;11.47;49.96;100212.14;106885;1257;25362;-53
2024/01/04 00:27:58;;;;;;;10.00;6.70;;;;;;;11.43;50.07;100210.54;107207;1254;25362;-53
2024/01/04 00:30:25;;;;;;;8.70;6.60;;;;;;;11.40;50.09;100203.48;107080;1257;25362;-52
2024/01/04 00:32:52;;;;;;;9.50;6.50;;;;;;;11.42;50.22;100209.86;107045;1266;25359;-53
2024/01/04 00:35:19;;;;;;;8.50;6.50;;;;;;;11.45;50.08;100217.40;107055;1254;25331;-53
2024/01/04 00:37:46;;;;;;;12.00;6.30;;;;;;;11.44;49.91;100223.70;107143;1257;25335;-53
2024/01/04 00:40:13;;;;;;;8.90;7.20;;;;;;;11.38;50.07;100219.70;107119;1250;25472;-53
2024/01/04 00:42:40;;;;;;;8.90;6.70;;;;;;;11.33;50.34;100221.64;107038;1263;25347;-52
2024/01/04 00:45:07;;;;;;;8.00;6.70;;;;;;;11.28;50.57;100223.19;107056;1256;25411;-53
2024/01/04 00:47:35;;;;;;;8.90;6.40;;;;;;;11.28;50.58;100221.95;107079;1254;25372;-53
2024/01/04 00:50:02;;;;;;;8.70;6.50;;;;;;;11.32;50.49;100227.71;106885;1255;22518;-52
2024/01/04 00:52:29;;;;;;;10.00;7.30;;;;;;;11.36;50.32;100234.20;107084;1256;24263;-53
2024/01/04 00:54:57;;;;;;;9.90;6.60;;;;;;;11.39;50.18;100237.40;107105;1254;22651;-53
2024/01/04 00:57:25;;;;;;;8.40;6.70;;;;;;;11.42;50.01;100239.75;107139;1260;25347;-52
2024/01/04 00:59:51;;;;;;;9.60;7.20;;;;;;;11.44;49.95;100238.96;107041;1256;25362;-53
2024/01/04 01:02:19;;;;;;;9.90;7.10;;;;;;;11.45;49.84;100241.52;107169;1257;25334;-53
2024/01/04 01:04:45;;;;;;;8.00;6.70;;;;;;;11.47;49.68;100241.14;107165;1257;23864;-52
2024/01/04 01:07:13;;;;;;;9.50;6.40;;;;;;;11.48;49.50;100243.71;107086;1257;25326;-53
2024/01/04 01:09:40;;;;;;;8.40;6.40;;;;;;;11.48;49.46;100235.21;107099;1254;25338;-53
2024/01/04 01:12:07;;;;;;;8.70;6.10;;;;;;;11.48;49.52;100233.13;106858;1259;25405;-53
2024/01/04 01:14:34;;;;;;;10.00;6.40;;;;;;;11.48;49.42;100240.44;107165;1257;25442;-52
2024/01/04 01:17:02;;;;;;;9.40;6.60;;;;;;;11.47;49.46;100240.45;107102;1266;25359;-53
2024/01/04 01:19:29;;;;;;;8.10;6.90;;;;;;;11.46;49.38;100240.64;107021;1257;25440;-53
2024/01/04 01:21:56;;;;;;;8.90;7.10;;;;;;;11.45;49.33;100245.18;106859;1267;25369;-53
2024/01/04 01:24:23;;;;;;;9.90;5.90;;;;;;;11.44;49.30;100245.57;106808;1273;25366;-53
2024/01/04 01:26:50;;;;;;;9.00;6.80;;;;;;;11.45;49.31;100242.42;106848;1269;25356;-52
2024/01/04 01:29:17;;;;;;;9.60;6.70;;;;;;;11.42;49.21;100238.19;107127;1256;25388;-52
2024/01/04 01:31:44;;;;;;;10.40;7.20;;;;;;;11.36;49.25;100243.56;106089;1272;1003137;-52
2024/01/04 01:34:12;;;;;;;8.90;6.90;;;;;;;11.29;49.33;100242.25;106068;1261;1003350;-52
2024/01/04 01:36:40;;;;;;;8.50;6.70;;;;;;;11.23;49.48;100242.27;106883;1255;25397;-53
2024/01/04 01:39:08;;;;;;;8.50;6.90;;;;;;;11.20;49.59;100242.73;106934;1254;22515;-53
2024/01/04 01:41:35;;;;;;;9.70;7.60;;;;;;;11.18;49.53;100243.30;107051;1257;25450;-52
2024/01/04 01:44:03;;;;;;;8.60;6.80;;;;;;;11.21;49.39;100244.96;107145;1260;25414;-53
2024/01/04 01:46:30;;;;;;;9.20;6.90;;;;;;;11.19;49.41;100241.19;107184;1254;24240;-53
2024/01/04 01:48:57;;;;;;;10.00;7.30;;;;;;;11.21;49.43;100240.77;107022;1256;25353;-54
2024/01/04 01:51:24;;;;;;;10.20;7.30;;;;;;;11.20;49.48;100238.91;106849;1266;22539;-52
2024/01/04 01:53:51;;;;;;;9.50;7.20;;;;;;;11.19;49.49;100237.02;107067;1253;25337;-52
2024/01/04 01:56:19;;;;;;;9.40;7.10;;;;;;;11.20;49.51;100239.75;106826;1269;24203;-52
2024/01/04 01:58:47;;;;;;;8.30;6.70;;;;;;;11.20;49.42;100236.45;106219;1255;1003123;-52
2024/01/04 02:01:14;;;;;;;9.80;7.20;;;;;;;11.21;49.37;100241.80;106942;1254;22625;-53
2024/01/04 02:03:42;;;;;;;12.20;7.40;;;;;;;11.22;49.32;100238.85;107114;1257;25455;-52
2024/01/04 02:06:09;;;;;;;15.00;8.50;;;;;;;11.22;49.37;100238.66;107036;1256;25356;-53
2024/01/04 02:08:36;;;;;;;12.00;8.20;;;;;;;11.23;49.48;100237.41;106714;1260;22546;-53
2024/01/04 02:11:03;;;;;;;13.30;7.70;;;;;;;11.23;49.46;100237.23;107029;1254;25342;-53
2024/01/04 02:13:30;;;;;;;11.70;7.80;;;;;;;11.23;49.49;100236.02;107009;1266;25338;-53
2024/01/04 02:15:57;;;;;;;12.30;7.40;;;;;;;11.24;49.63;100236.52;106889;1267;25414;-53
2024/01/04 02:18:24;;;;;;;10.30;7.90;;;;;;;11.24;49.50;100236.69;106992;1257;23301;-52
2024/01/04 02:20:52;;;;;;;10.10;7.00;;;;;;;11.25;49.48;100237.19;106280;1256;1003647;-53
2024/01/04 02:23:19;;;;;;;9.90;7.00;;;;;;;11.25;49.54;100241.34;107160;1264;25362;-52
2024/01/04 02:25:46;;;;;;;8.60;6.90;;;;;;;11.25;49.54;100240.48;107292;1257;25365;-52
2024/01/04 02:28:13;;;;;;;11.60;7.70;;;;;;;11.25;49.58;100245.14;106393;1257;1003151;-53
2024/01/04 02:30:40;;;;;;;11.00;6.50;;;;;;;11.26;49.61;100250.70;106995;1264;25359;-52
2024/01/04 02:33:08;;;;;;;8.70;6.50;;;;;;;11.25;49.62;100246.19;107095;1260;22620;-52
2024/01/04 02:35:36;;;;;;;7.80;6.60;;;;;;;11.25;49.60;100240.48;107143;1255;25411;-52
2024/01/04 02:38:03;;;;;;;9.20;7.20;;;;;;;11.24;49.60;100238.23;106344;1257;1002934;-52
2024/01/04 02:40:30;;;;;;;9.30;6.60;;;;;;;11.24;49.60;100236.17;106923;1256;24241;-51
2024/01/04 02:42:57;;;;;;;10.90;7.40;;;;;;;11.23;49.60;100237.56;106813;1269;25488;-52
2024/01/04 02:45:24;;;;;;;9.00;7.20;;;;;;;11.23;49.69;100244.89;106661;1255;469767;-51
2024/01/04 02:47:51;;;;;;;9.70;7.00;;;;;;;11.21;49.59;100252.21;107175;1267;25362;-52
2024/01/04 02:50:19;;;;;;;9.40;6.90;;;;;;;11.18;49.61;100262.21;107208;1257;25356;-51
2024/01/04 02:52:46;;;;;;;8.50;7.30;;;;;;;11.16;49.63;100264.72;107170;1256;25303;-52
2024/01/04 02:55:13;;;;;;;10.30;7.70;;;;;;;11.15;49.79;100265.43;106914;1257;25475;-53
2024/01/04 02:57:40;;;;;;;11.20;7.10;;;;;;;11.13;49.69;100269.35;106534;1260;22748;-51
2024/01/04 03:00:08;;;;;;;9.40;6.90;;;;;;;11.11;49.46;100273.40;107007;1261;25391;-52
2024/01/04 03:02:36;;;;;;;11.00;7.80;;;;;;;11.09;49.25;100266.86;106752;1272;24219;-51
2024/01/04 03:05:05;;;;;;;9.10;6.50;;;;;;;11.07;49.12;100270.55;106922;1256;22533;-52
2024/01/04 03:07:32;;;;;;;9.50;6.60;;;;;;;11.05;49.09;100264.73;106411;1263;25415;-52
2024/01/04 03:09:59;;;;;;;10.50;6.90;;;;;;;11.04;49.11;100265.48;106782;1257;25337;-51
2024/01/04 03:12:26;;;;;;;8.50;7.10;;;;;;;11.01;49.21;100263.98;106865;1264;25337;-52
2024/01/04 03:14:53;;;;;;;8.20;6.80;;;;;;;11.00;49.13;100263.52;106568;1259;25341;-51
2024/01/04 03:17:21;;;;;;;8.70;7.00;;;;;;;10.97;49.15;100265.35;106981;1259;24185;-52
2024/01/04 03:19:48;;;;;;;8.30;6.50;;;;;;;10.94;49.16;100267.85;106934;1257;25319;-52
2024/01/04 03:22:15;;;;;;;10.20;7.90;;;;;;;10.91;48.86;100267.23;106882;1259;25325;-52
2024/01/04 03:24:42;;;;;;;8.50;6.80;;;;;;;10.89;48.90;100266.27;106851;1261;25411;-52
2024/01/04 03:27:12;;;;;;;13.40;9.80;;;;;;;10.87;48.95;100263.92;107067;1256;25328;-52
2024/01/04 03:29:39;;;;;;;12.20;9.20;;;;;;;10.84;49.10;100267.65;106832;1259;25347;-51
2024/01/04 03:32:06;;;;;;;12.30;7.80;;;;;;;10.83;49.15;100272.20;106854;1272;25487;-51
2024/01/04 03:34:34;;;;;;;9.70;7.50;;;;;;;10.81;49.22;100272.78;107046;1257;25338;-53
2024/01/04 03:37:01;;;;;;;11.00;7.40;;;;;;;10.79;49.23;100271.81;106344;1254;1003076;-52
2024/01/04 03:39:29;;;;;;;14.30;7.00;;;;;;;10.77;49.38;100276.36;107184;1263;25344;-51
2024/01/04 03:41:56;;;;;;;13.00;7.70;;;;;;;10.77;49.50;100284.35;107110;1256;25328;-52
2024/01/04 03:44:22;;;;;;;10.30;7.50;;;;;;;10.78;49.61;100287.27;107118;1253;25414;-51
2024/01/04 03:46:50;;;;;;;13.00;7.60;;;;;;;10.78;49.72;100288.83;107099;1257;25337;-53
2024/01/04 03:49:17;;;;;;;8.50;6.70;;;;;;;10.78;49.69;100296.45;107258;1257;25411;-51
2024/01/04 03:51:44;;;;;;;9.40;7.10;;;;;;;10.79;49.73;100295.73;106930;1266;25337;-51
2024/01/04 03:54:11;;;;;;;9.20;7.00;;;;;;;10.80;49.74;100301.24;106071;1256;1002957;-51
2024/01/04 03:56:38;;;;;;;8.80;7.30;;;;;;;10.81;49.58;100302.79;106916;1262;25487;-51
2024/01/04 03:59:05;;;;;;;15.10;9.30;;;;;;;10.82;49.58;100303.45;106930;1260;25356;-51
2024/01/04 04:01:32;;;;;;;17.00;9.70;;;;;;;10.82;49.55;100305.36;106764;1272;25373;-51
2024/01/04 04:03:59;;;;;;;11.90;7.70;;;;;;;10.81;49.46;100306.77;107165;1258;25390;-51
2024/01/04 04:06:26;;;;;;;11.40;8.00;;;;;;;10.80;49.44;100309.60;107072;1261;25322;-51
2024/01/04 04:08:53;;;;;;;13.60;8.50;;;;;;;10.78;49.47;100306.69;107298;1257;25328;-51
2024/01/04 04:11:20;;;;;;;12.40;8.10;;;;;;;10.77;49.44;100301.02;107087;1251;25325;-51
2024/01/04 04:13:47;;;;;;;13.70;7.90;;;;;;;10.77;49.36;100302.05;107136;1263;25405;-51
2024/01/04 04:16:14;;;;;;;10.90;7.40;;;;;;;10.75;49.28;100299.84;107125;1254;25334;-52
2024/01/04 04:18:41;;;;;;;10.80;7.60;;;;;;;10.75;49.21;100300.03;106031;1272;1003759;-51
2024/01/04 04:21:08;;;;;;;8.50;6.70;;;;;;;10.75;49.22;100300.37;107112;1256;22597;-54
2024/01/04 04:23:37;;;;;;;11.10;7.70;;;;;;;10.75;49.16;100297.95;107091;1256;25456;-51
2024/01/04 04:26:05;;;;;;;8.00;6.90;;;;;;;10.74;49.16;100302.30;107073;1256;25487;-53
2024/01/04 04:28:32;;;;;;;9.80;7.40;;;;;;;10.74;49.23;100304.20;106145;1259;1003709;-52
2024/01/04 04:30:59;;;;;;;9.20;7.10;;;;;;;10.75;49.23;100299.16;106938;1259;25356;-53
2024/01/04 04:33:26;;;;;;;9.20;6.50;;;;;;;10.76;49.18;100297.05;106807;1259;25325;-53
2024/01/04 04:35:54;;;;;;;8.20;6.40;;;;;;;10.77;49.35;100294.60;107128;1256;25325;-53
2024/01/04 04:38:28;;;;;;;8.20;6.30;;;;;;;10.77;49.26;100299.63;107037;1256;25356;-52
2024/01/04 04:40:55;;;;;;;7.30;5.80;;;;;;;10.79;49.18;100311.88;106022;1269;1003781;-52
2024/01/04 04:43:22;;;;;;;8.10;6.20;;;;;;;10.79;49.17;100318.64;107120;1256;25363;-53
2024/01/04 04:45:49;;;;;;;10.00;6.50;;;;;;;10.79;49.27;100321.77;106805;1259;25387;-53
2024/01/04 04:48:16;;;;;;;12.20;8.20;;;;;;;10.81;49.27;100320.33;106037;1256;1014429;-51
2024/01/04 04:50:43;;;;;;;7.80;6.00;;;;;;;10.82;49.28;100318.20;106061;1261;1003805;-53
2024/01/04 04:53:10;;;;;;;8.00;6.00;;;;;;;10.84;49.57;100320.41;107113;1257;25379;-51
2024/01/04 04:55:37;;;;;;;9.50;6.70;;;;;;;10.86;49.65;100321.02;107179;1257;25338;-53
2024/01/04 04:58:04;;;;;;;10.00;5.60;;;;;;;10.89;49.68;100334.30;107112;1264;25337;-53
2024/01/04 05:00:31;;;;;;;7.80;5.80;;;;;;;10.93;49.74;100341.12;107060;1257;24219;-53
2024/01/04 05:02:58;;;;;;;8.60;6.20;;;;;;;10.96;49.70;100339.31;107154;1256;23157;-53
2024/01/04 05:05:25;;;;;;;7.90;5.90;;;;;;;10.96;49.87;100337.23;107074;1257;25415;-53
2024/01/04 05:07:52;;;;;;;8.40;5.90;;;;;;;10.96;49.93;100335.31;107091;1266;25365;-52
2024/01/04 05:10:19;;;;;;;13.70;6.50;;;;;;;10.96;49.99;100336.88;106370;1257;1005636;-52
2024/01/04 05:12:47;;;;;;;8.70;6.00;;;;;;;10.97;50.07;100340.30;106982;1270;25487;-52
2024/01/04 05:15:14;;;;;;;8.80;5.70;;;;;;;10.98;50.08;100339.76;107179;1255;25373;-53
2024/01/04 05:17:41;;;;;;;7.80;5.80;;;;;;;10.99;50.10;100341.29;106576;1275;25443;-53
2024/01/04 05:20:09;;;;;;;8.50;6.30;;;;;;;11.00;50.15;100344.73;107112;1266;25356;-53
2024/01/04 05:22:36;;;;;;;9.00;6.60;;;;;;;11.01;50.12;100348.52;106485;1261;1003540;-53
2024/01/04 05:25:03;;;;;;;10.10;6.00;;;;;;;11.02;50.09;100345.52;107088;1266;25401;-53
2024/01/04 05:27:30;;;;;;;9.00;6.40;;;;;;;11.03;50.05;100343.77;106811;1262;25475;-53
2024/01/04 05:29:57;;;;;;;7.10;5.90;;;;;;;11.04;49.98;100347.75;106956;1260;25365;-53
2024/01/04 05:32:24;;;;;;;8.70;6.20;;;;;;;11.05;49.90;100350.33;107125;1255;25385;-53
2024/01/04 05:34:51;;;;;;;9.00;6.60;;;;;;;11.05;49.78;100345.80;107136;1266;25343;-53
2024/01/04 05:37:19;;;;;;;10.50;6.50;;;;;;;11.05;49.66;100344.21;106795;1259;25337;-54
2024/01/04 05:39:46;;;;;;;10.70;6.60;;;;;;;11.05;49.61;100340.40;107116;1256;22947;-53
2024/01/04 05:42:13;;;;;;;7.80;6.00;;;;;;;11.05;49.42;100339.89;107029;1257;24209;-53
2024/01/04 05:44:40;;;;;;;9.60;6.80;;;;;;;11.05;49.39;100338.35;107206;1256;23158;-51
2024/01/04 05:47:07;;;;;;;8.00;6.80;;;;;;;11.04;49.35;100339.58;107107;1263;25417;-53
2024/01/04 05:49:36;;;;;;;8.40;6.70;;;;;;;11.03;49.19;100341.17;106384;1257;1002990;-52
2024/01/04 05:52:03;;;;;;;10.10;7.20;;;;;;;11.02;49.28;100347.95;107130;1257;22530;-53
2024/01/04 05:54:31;;;;;;;10.40;7.30;;;;;;;11.01;49.28;100352.33;107088;1256;22642;-52
2024/01/04 05:56:58;;;;;;;10.00;7.70;;;;;;;11.00;49.29;100352.02;107107;1257;25362;-52
2024/01/04 05:59:25;;;;;;;9.50;7.00;;;;;;;11.00;49.32;100352.02;107154;1256;25570;-53
2024/01/04 06:01:52;;;;;;;9.80;7.70;;;;;;;11.01;49.36;100347.98;106835;1272;25366;-53
2024/01/04 06:04:19;;;;;;;9.70;7.90;;;;;;;11.02;49.54;100350.91;106821;1274;22623;-53
2024/01/04 06:06:49;;;;;;;14.10;8.30;;;;;;;11.04;49.46;100350.85;106908;1267;25366;-53
2024/01/04 06:09:20;;;;;;;9.90;7.40;;;;;;;11.07;49.64;100358.92;107186;1257;24178;-52
2024/01/04 06:11:48;;;;;;;11.20;7.80;;;;;;;11.09;49.70;100356.77;106165;1274;1002772;-52
2024/01/04 06:14:15;;;;;;;11.90;8.10;;;;;;;11.13;49.76;100363.77;107118;1253;24202;-52
2024/01/04 06:16:41;;;;;;;10.60;8.00;;;;;;;11.18;49.87;100364.67;107055;1257;25311;-52
2024/01/04 06:19:08;;;;;;;11.10;8.10;;;;;;;11.24;50.09;100371.24;106994;1253;25475;-52
2024/01/04 06:21:36;;;;;;;9.40;7.00;;;;;;;11.35;50.50;100368.30;106431;1257;1003043;-52
2024/01/04 06:24:04;;;;;;;10.90;7.30;;;;;;;11.52;50.55;100365.69;106334;1257;1003211;-52
2024/01/04 06:26:31;;;;;;;10.00;7.40;;;;;;;11.68;50.13;100366.74;107126;1257;25233;-51
2024/01/04 06:28:58;;;;;;;9.90;7.00;;;;;;;11.84;49.68;100364.52;107088;1257;25328;-51
2024/01/04 06:31:25;;;;;;;11.00;7.50;;;;;;;11.95;49.48;100358.90;107025;1256;25328;-51
2024/01/04 06:33:52;;;;;;;8.80;7.00;;;;;;;12.06;49.29;100351.73;106408;1257;1003200;-51
2024/01/04 06:36:19;;;;;;;7.90;6.20;;;;;;;12.16;49.07;100347.58;106828;1257;25481;-52
2024/01/04 06:38:50;;;;;;;7.80;6.80;;;;;;;12.24;49.10;100341.55;107206;1258;25328;-52
2024/01/04 06:41:19;;;;;;;10.00;7.20;;;;;;;12.33;49.00;100331.32;107154;1254;25325;-51
2024/01/04 06:43:46;;;;;;;9.10;7.00;;;;;;;12.41;48.78;100322.52;106844;1262;22623;-52
2024/01/04 06:46:16;;;;;;;9.70;7.00;;;;;;;12.49;48.65;100326.94;107117;1267;25411;-52
2024/01/04 06:48:43;;;;;;;8.80;6.40;;;;;;;12.56;48.55;100330.31;106781;1259;25419;-51
2024/01/04 06:51:13;;;;;;;11.40;7.40;;;;;;;12.63;48.39;100342.06;107106;1257;25366;-51
2024/01/04 06:53:40;;;;;;;13.40;7.50;;;;;;;12.68;48.46;100345.88;107141;1256;24202;-52
2024/01/04 06:56:07;;;;;;;10.10;6.70;;;;;;;12.73;48.86;100357.19;106888;1259;25558;-52
2024/01/04 06:58:35;;;;;;;15.90;8.90;;;;;;;12.76;49.14;100368.89;107111;1257;25356;-52
2024/01/04 07:01:02;;;;;;;11.60;7.40;;;;;;;12.78;49.40;100372.48;107108;1257;25338;-52
2024/01/04 07:03:30;;;;;;;10.40;7.70;;;;;;;12.82;49.53;100369.90;107172;1257;25353;-52
2024/01/04 07:05:57;;;;;;;13.10;8.50;;;;;;;12.85;49.53;100372.39;107162;1257;24205;-52
2024/01/04 07:08:24;;;;;;;10.50;7.20;;;;;;;12.88;49.34;100370.89;107181;1253;24079;-52
2024/01/04 07:10:51;;;;;;;8.80;7.40;;;;;;;12.91;49.00;100368.32;107083;1266;25414;-52
2024/01/04 07:13:18;;;;;;;13.70;9.40;;;;;;;12.93;48.78;100374.18;106813;1259;25352;-52
2024/01/04 07:15:45;;;;;;;12.80;8.10;;;;;;;12.94;48.71;100373.95;107131;1257;25487;-52
2024/01/04 07:18:12;;;;;;;12.40;8.20;;;;;;;12.95;48.80;100367.98;107121;1265;25363;-52
2024/01/04 07:20:41;;;;;;;11.00;8.30;;;;;;;12.98;48.82;100364.23;107089;1257;25405;-52
2024/01/04 07:23:08;;;;;;;11.00;8.20;;;;;;;12.99;48.83;100362.45;107117;1256;22533;-52
2024/01/04 07:25:36;;;;;;;12.00;8.30;;;;;;;13.02;48.78;100359.55;107035;1257;24240;-52
2024/01/04 07:28:05;;;;;;;9.50;8.00;;;;;;;13.06;48.79;100352.64;106400;1256;1003642;-52
2024/01/04 07:30:32;;;;;;;12.70;8.50;;;;;;;13.13;48.74;100357.29;107111;1256;26865;-53
2024/01/04 07:32:59;;;;;;;9.40;7.30;;;;;;;13.19;48.70;100357.20;107119;1256;22526;-52
2024/01/04 07:35:27;;;;;;;10.00;7.90;;;;;;;13.28;48.71;100362.09;107160;1263;25334;-52
2024/01/04 07:37:54;;;;;;;10.30;8.10;;;;;;;13.35;48.50;100367.71;107023;1253;25337;-52
2024/01/04 07:40:22;;;;;;;9.70;7.90;;;;;;;13.42;48.25;100373.36;107042;1257;25433;-53
2024/01/04 07:42:49;;;;;;;12.20;8.00;;;;;;;13.48;48.18;100374.00;107097;1256;25363;-53
2024/01/04 07:45:16;;;;;;;10.40;7.90;;;;;;;13.53;48.05;100370.83;107072;1257;25787;-53
2024/01/04 07:47:43;;;;;;;10.00;7.40;;;;;;;13.58;47.85;100366.95;107152;1256;23871;-52
2024/01/04 07:50:11;;;;;;;10.40;8.50;;;;;;;13.64;47.84;100366.02;107257;1256;25414;-52
2024/01/04 07:52:40;;;;;;;9.50;7.90;;;;;;;13.71;47.82;100367.13;107133;1263;25353;-52
2024/01/04 07:55:07;;;;;;;9.60;8.20;;;;;;;13.75;47.74;100359.98;107166;1257;22639;-52
2024/01/04 07:57:34;;;;;;;10.80;8.30;;;;;;;13.81;47.69;100358.17;107074;1257;25487;-52
2024/01/04 08:00:03;;;;;;;11.70;9.00;;;;;;;13.85;47.64;100360.64;106389;1262;1002958;-52
2024/01/04 08:02:39;;;;;;;10.80;8.30;;;;;;;13.89;47.68;100359.77;107150;1259;25330;-52
2024/01/04 08:05:08;;;;;;;9.70;7.90;;;;;;;13.91;47.52;100360.72;107070;1256;25356;-52
2024/01/04 08:07:36;;;;;;;9.40;7.70;;;;;;;13.93;47.48;100361.84;106909;1257;22534;-52
2024/01/04 08:10:03;;;;;;;9.10;7.80;;;;;;;13.94;47.35;100355.90;106277;1259;1003097;-52
2024/01/04 08:12:30;;;;;;;10.70;8.30;;;;;;;13.93;47.37;100357.83;106113;1259;1003210;-53
2024/01/04 08:14:57;;;;;;;9.50;7.50;;;;;;;13.93;47.37;100355.20;107135;1257;25417;-53
2024/01/04 08:17:25;;;;;;;8.80;7.60;;;;;;;13.92;47.26;100352.63;107125;1257;25338;-52
2024/01/04 08:19:52;;;;;;;9.30;7.30;;;;;;;13.93;47.25;100355.08;107085;1257;25487;-52
2024/01/04 08:22:21;;;;;;;10.40;7.70;;;;;;;13.93;47.17;100356.80;107061;1257;25331;-52
2024/01/04 08:24:47;;;;;;;9.80;7.90;;;;;;;13.94;47.13;100345.59;107114;1257;25337;-52
2024/01/04 08:27:18;;;;;;;10.30;7.70;;;;;;;13.97;47.15;100335.73;106992;1257;25325;-52
2024/01/04 08:29:48;;;;;;;11.10;8.60;;;;;;;13.99;47.20;100337.38;106769;1257;25414;-52
2024/01/04 08:32:16;;;;;;;11.20;8.00;;;;;;;14.01;47.18;100332.21;106374;1274;25411;-52
2024/01/04 08:34:43;;;;;;;9.90;8.10;;;;;;;14.03;47.19;100326.03;107005;1262;22541;-53
2024/01/04 08:37:10;;;;;;;11.30;8.70;;;;;;;14.05;47.12;100324.19;106954;1256;25484;-52
2024/01/04 08:39:37;;;;;;;9.80;7.30;;;;;;;14.08;47.19;100318.84;107247;1257;25334;-52
2024/01/04 08:42:06;;;;;;;9.90;8.30;;;;;;;14.10;47.16;100318.23;107107;1266;25385;-52
2024/01/04 08:44:33;;;;;;;11.60;8.30;;;;;;;14.11;47.15;100317.50;107196;1255;24258;-52
2024/01/04 08:47:00;;;;;;;10.50;7.10;;;;;;;14.11;47.10;100316.80;107111;1267;25402;-53
2024/01/04 08:49:27;;;;;;;10.50;8.20;;;;;;;14.09;47.18;100313.19;107129;1254;25347;-53
2024/01/04 08:51:55;;;;;;;10.90;7.70;;;;;;;14.08;47.27;100316.73;107087;1266;25357;-53
2024/01/04 08:54:23;;;;;;;10.90;8.30;;;;;;;14.06;47.35;100317.00;106923;1274;25287;-52
2024/01/04 08:56:50;;;;;;;9.50;8.10;;;;;;;14.06;47.49;100310.05;107109;1260;25395;-52
2024/01/04 08:59:18;;;;;;;9.50;8.30;;;;;;;14.05;47.62;100305.00;106990;1273;25353;-52
2024/01/04 09:01:44;;;;;;;9.50;7.40;;;;;;;14.06;47.72;100309.00;107126;1257;25353;-52
2024/01/04 09:04:12;;;;;;;11.10;8.50;;;;;;;14.08;47.72;100306.79;106354;1266;1002953;-52
2024/01/04 09:06:40;;;;;;;9.70;7.40;;;;;;;14.11;47.74;100305.64;107119;1267;22621;-52
2024/01/04 09:09:07;;;;;;;8.60;7.30;;;;;;;14.14;47.83;100311.96;106659;1267;22629;-52
2024/01/04 09:11:40;;;;;;;10.10;7.90;;;;;;;14.18;47.81;100304.96;106513;1267;24187;-53
2024/01/04 09:14:11;;;;;;;8.90;7.40;;;;;;;14.24;47.86;100306.11;107084;1256;22901;-52
2024/01/04 09:16:39;;;;;;;;;;;;;;;14.30;47.78;100303.95;105880;1272;1003799;-52
2024/01/04 09:19:06;;;;;;;10.60;8.50;;;;;;;14.36;47.69;100302.82;106879;1256;25475;-52
2024/01/04 09:21:34;;;;;;;9.90;8.40;;;;;;;14.43;47.69;100294.83;106909;1274;22543;-53
2024/01/04 09:24:01;;;;;;;11.20;8.70;;;;;;;14.49;47.55;100291.89;106837;1267;25384;-52
2024/01/04 09:26:28;;;;;;;10.20;8.40;;;;;;;14.58;47.44;100293.61;107111;1257;25328;-52
2024/01/04 09:28:55;;;;;;;11.00;8.10;;;;;;;14.66;47.41;100288.87;107074;1274;25796;-52
2024/01/04 09:31:23;;;;;;;11.00;7.90;;;;;;;14.74;47.23;100280.13;107238;1256;25322;-52
2024/01/04 09:33:55;;;;;;;9.20;8.00;;;;;;;14.81;47.22;100278.74;106875;1275;25353;-50
2024/01/04 09:36:23;;;;;;;8.90;7.30;;;;;;;14.89;47.12;100278.40;107151;1268;25464;-52
2024/01/04 09:38:50;;;;;;;9.20;7.60;;;;;;;14.95;47.11;100282.31;106447;1269;1002899;-52
2024/01/04 09:41:29;;;;;;;10.20;7.60;;;;;;;15.00;46.84;100272.60;106980;1267;23807;-52
2024/01/04 09:44:06;;;;;;;8.30;7.00;;;;;;;15.04;46.75;100263.15;106952;1259;22535;-53
2024/01/04 09:46:36;;;;;;;7.40;6.60;;;;;;;15.07;46.85;100256.36;107082;1267;25232;-53
2024/01/04 09:49:05;;;;;;;8.30;6.70;;;;;;;15.10;46.74;100255.88;107058;1254;25347;-52
2024/01/04 09:51:37;;;;;;;10.70;6.70;;;;;;;15.12;46.71;100255.94;106904;1260;22761;-52
2024/01/04 09:54:08;;;;;;;8.60;6.90;;;;;;;15.16;46.72;100250.01;107177;1257;22637;-52
2024/01/04 09:56:37;;;;;;;11.00;7.50;;;;;;;15.19;46.60;100244.25;106877;1259;25365;-52
2024/01/04 09:59:04;;;;;;;9.50;8.30;;;;;;;15.23;46.52;100238.46;106889;1263;25353;-52
2024/01/04 10:01:35;;;;;;;12.30;8.00;;;;;;;15.26;46.51;100235.68;106978;1269;25318;-53
2024/01/04 10:04:13;;;;;;;11.70;8.20;;;;;;;15.29;47.25;100229.42;107018;1263;26006;-53
2024/01/04 10:06:42;;;;;;;12.20;8.50;;;;;;;15.31;47.78;100223.71;107179;1271;22761;-53
2024/01/04 10:09:26;;;;;;;11.50;8.20;;;;;;;15.34;48.00;100215.71;107179;1256;23278;-53
2024/01/04 10:12:08;;;;;;;13.70;8.60;;;;;;;15.37;48.06;100237.41;106925;1266;25793;-53
2024/01/04 10:14:36;;;;;;;14.30;8.00;;;;;;;15.35;48.26;100237.16;105916;1256;1003775;-53
2024/01/04 10:17:04;;;;;;;9.40;7.60;;;;;;;15.32;48.23;100240.83;106868;1272;25609;-53
2024/01/04 10:19:32;;;;;;;10.00;8.00;;;;;;;15.30;47.99;100234.79;106920;1270;25436;-53
2024/01/04 10:22:03;;;;;;;10.50;7.60;;;;;;;15.29;47.74;100227.12;106816;1267;24219;-53
2024/01/04 10:24:38;;;;;;;9.80;7.50;;;;;;;15.30;47.34;100217.67;106778;1275;22703;-52
2024/01/04 10:27:07;;;;;;;9.40;8.30;;;;;;;15.32;47.23;100207.10;107081;1256;22584;-53
2024/01/04 10:29:35;;;;;;;13.30;7.90;;;;;;;15.35;47.17;100204.15;106836;1274;25399;-52
2024/01/04 10:32:04;;;;;;;10.10;7.60;;;;;;;15.39;47.11;100199.02;106889;1271;25334;-53
2024/01/04 10:34:33;;;;;;;12.20;8.40;;;;;;;15.43;47.03;100193.79;106724;1274;23871;-53
2024/01/04 10:37:14;;;;;;;15.10;8.50;;;;;;;15.48;46.88;100187.60;106996;1258;25353;-53
2024/01/04 10:39:45;;;;;;;11.80;8.40;;;;;;;15.54;46.65;100191.52;107160;1257;25452;-53
2024/01/04 10:42:12;;;;;;;11.50;8.00;;;;;;;15.58;46.63;100194.79;106955;1254;25401;-53
2024/01/04 10:44:39;;;;;;;12.50;9.40;;;;;;;15.61;46.50;100189.37;106761;1257;26493;-53
2024/01/04 10:47:09;;;;;;;12.50;8.90;;;;;;;15.63;46.50;100186.45;106851;1269;25519;-52
2024/01/04 10:49:39;;;;;;;15.20;10.80;;;;;;;15.64;46.54;100187.10;106815;1267;25347;-52
2024/01/04 10:52:09;;;;;;;16.40;11.00;;;;;;;15.65;46.54;100190.22;106908;1266;25290;-52
2024/01/04 10:54:36;;;;;;;12.60;8.90;;;;;;;15.65;46.73;100190.41;106498;1265;25350;-52
2024/01/04 10:57:03;;;;;;;13.10;9.00;;;;;;;15.65;46.77;100190.41;106543;1260;22521;-52
2024/01/04 10:59:32;;;;;;;16.10;9.30;;;;;;;15.65;46.72;100185.52;106885;1267;25272;-52
2024/01/04 11:02:00;;;;;;;12.30;8.70;;;;;;;15.67;46.79;100179.96;106455;1273;25336;-52
2024/01/04 11:04:29;;;;;;;10.60;7.70;;;;;;;15.71;46.76;100174.01;106827;1267;25325;-52
2024/01/04 11:06:58;;;;;;;8.70;7.70;;;;;;;15.77;46.59;100171.44;107040;1269;25271;-52
2024/01/04 11:09:25;;;;;;;8.70;6.80;;;;;;;15.83;46.30;100162.33;107104;1257;25417;-52
2024/01/04 11:11:53;;;;;;;8.70;5.90;;;;;;;15.98;45.94;100166.61;107106;1273;25356;-54
2024/01/04 11:14:22;;;;;;;8.20;6.10;;;;;;;16.05;45.45;100163.42;107170;1273;27020;-54